Time;durP1;ratioP1;P1;durP2;ratioP2;P2;SDS_P1;SDS_P2;PMS_P1;PMS_P2;Temp;Humidity;BMP_temperature;BMP_pressure;BME280_temperature;BME280_humidity;BME280_pressure;Samples;Min_cycle;Max_cycle;Signal;HPM_P1;HPM_P2
2021/12/28 00:01:28;;;;;;;74.03;23.77;;;;;;;6.32;92.60;99434.25;5007134;28;20018;-64
2021/12/28 00:03:54;;;;;;;74.65;22.65;;;;;;;6.30;92.63;99431.72;4988046;28;20477;-64
2021/12/28 00:06:20;;;;;;;55.10;18.10;;;;;;;6.31;92.44;99427.34;5007125;28;20072;-64
2021/12/28 00:08:46;;;;;;;63.50;17.83;;;;;;;6.29;92.43;99423.94;4988542;28;20396;-63
2021/12/28 00:11:12;;;;;;;74.80;24.10;;;;;;;6.26;92.53;99424.06;5007030;28;20389;-63
2021/12/28 00:13:38;;;;;;;61.33;21.73;;;;;;;6.22;92.62;99420.69;4989182;28;20030;-63
2021/12/28 00:18:30;;;;;;;80.70;24.67;;;;;;;6.21;92.67;99426.84;5008637;28;20037;-63
2021/12/28 00:20:57;;;;;;;66.28;20.65;;;;;;;6.21;92.73;99419.00;5025456;28;20435;-63
2021/12/28 00:23:40;;;;;;;65.82;21.35;;;;;;;6.14;92.59;99417.53;5026896;28;20025;-66
2021/12/28 00:26:11;;;;;;;65.97;18.92;;;;;;;6.09;92.56;99411.63;5026324;28;20048;-63
2021/12/28 00:28:37;;;;;;;70.88;21.13;;;;;;;6.07;92.47;99415.16;5026574;28;20064;-64
2021/12/28 00:31:03;;;;;;;75.32;19.70;;;;;;;6.07;92.52;99415.16;5019489;28;20057;-63
2021/12/28 00:33:28;;;;;;;63.05;16.83;;;;;;;6.08;92.50;99421.22;4988902;28;20034;-63
2021/12/28 00:35:54;;;;;;;50.53;15.88;;;;;;;6.04;92.51;99419.63;4984834;28;20088;-63
2021/12/28 00:38:22;;;;;;;71.30;22.00;;;;;;;6.01;92.58;99420.59;4987381;28;20022;-64
2021/12/28 00:40:50;;;;;;;57.20;19.07;;;;;;;5.99;92.54;99417.16;4986821;28;20440;-64
2021/12/28 00:43:16;;;;;;;80.28;23.30;;;;;;;5.95;92.69;99410.34;4969748;28;20038;-64
2021/12/28 00:45:41;;;;;;;61.00;18.55;;;;;;;5.94;92.75;99408.66;4989547;28;20103;-63
2021/12/28 00:48:07;;;;;;;78.22;22.08;;;;;;;5.95;92.69;99407.72;4981362;28;20026;-64
2021/12/28 00:50:33;;;;;;;63.22;20.98;;;;;;;5.94;92.85;99404.25;4992002;28;20323;-63
2021/12/28 00:52:58;;;;;;;59.95;21.25;;;;;;;5.99;93.05;99406.69;5007858;28;20029;-64
2021/12/28 00:55:24;;;;;;;70.55;20.38;;;;;;;6.04;93.02;99403.94;5005794;28;20550;-65
2021/12/28 00:57:50;;;;;;;73.65;20.50;;;;;;;6.00;92.96;99400.59;5004258;28;20487;-64
2021/12/28 01:00:20;;;;;;;69.97;18.58;;;;;;;5.98;92.84;99401.53;4986295;28;20053;-64
2021/12/28 01:02:45;;;;;;;58.30;18.55;;;;;;;5.93;92.78;99392.09;4990818;28;20049;-64
2021/12/28 01:05:11;;;;;;;67.03;19.13;;;;;;;5.92;92.80;99394.78;5006405;28;20041;-64
2021/12/28 01:07:37;;;;;;;70.05;18.17;;;;;;;5.93;92.76;99399.13;5005461;28;20030;-63
2021/12/28 01:10:05;;;;;;;44.85;13.80;;;;;;;5.89;92.78;99387.03;5005729;28;20484;-64
2021/12/28 01:12:30;;;;;;;52.15;13.20;;;;;;;5.89;92.54;99384.44;5005314;28;20052;-63
2021/12/28 01:14:56;;;;;;;70.18;21.25;;;;;;;5.92;92.64;99376.47;5004975;28;20017;-64
2021/12/28 01:17:21;;;;;;;64.95;17.73;;;;;;;5.90;92.84;99375.69;5019930;28;20506;-64
2021/12/28 01:19:47;;;;;;;68.53;20.65;;;;;;;5.87;92.71;99370.59;5025646;28;20032;-64
2021/12/28 01:22:13;;;;;;;75.35;18.73;;;;;;;5.79;92.50;99371.72;5007529;28;20392;-65
2021/12/28 01:24:38;;;;;;;68.72;18.77;;;;;;;5.77;92.39;99370.94;5025967;28;20021;-64
2021/12/28 01:27:03;;;;;;;81.50;22.88;;;;;;;5.77;92.50;99373.53;5025626;28;21076;-64
2021/12/28 01:29:29;;;;;;;61.00;18.60;;;;;;;5.74;92.45;99378.88;5000801;28;20022;-65
2021/12/28 01:31:54;;;;;;;71.22;18.13;;;;;;;5.74;92.34;99376.25;4996339;28;20535;-64
2021/12/28 01:34:20;;;;;;;56.83;15.32;;;;;;;5.71;92.43;99373.75;5005975;28;20026;-66
2021/12/28 01:36:45;;;;;;;69.95;16.30;;;;;;;5.73;92.44;99373.72;5004783;28;20022;-63
2021/12/28 01:39:11;;;;;;;76.63;17.30;;;;;;;5.76;92.58;99374.47;5006338;28;20022;-64
2021/12/28 01:41:37;;;;;;;66.40;17.30;;;;;;;5.78;92.76;99367.38;5005247;28;20022;-63
2021/12/28 01:44:07;;;;;;;72.10;17.38;;;;;;;5.88;93.06;99370.53;5005326;28;20018;-63
2021/12/28 01:46:33;;;;;;;76.28;17.67;;;;;;;5.94;93.20;99372.06;5004902;28;20018;-63
2021/12/28 01:48:59;;;;;;;71.68;19.05;;;;;;;5.98;93.20;99365.78;4987399;28;20013;-64
2021/12/28 01:51:26;;;;;;;75.25;17.10;;;;;;;6.03;93.27;99365.63;5005649;28;20026;-63
2021/12/28 01:53:55;;;;;;;68.22;15.32;;;;;;;6.10;93.24;99374.09;4987862;28;20084;-63
2021/12/28 01:56:24;;;;;;;63.53;15.73;;;;;;;6.13;93.18;99371.34;5005198;28;20094;-63
2021/12/28 01:58:50;;;;;;;58.38;14.25;;;;;;;6.17;93.21;99368.56;5005705;28;20041;-64
2021/12/28 02:01:16;;;;;;;64.47;16.17;;;;;;;6.18;93.08;99361.56;4987206;28;20006;-64
2021/12/28 02:03:41;;;;;;;66.30;14.23;;;;;;;6.19;92.98;99366.75;5005319;28;20087;-63
2021/12/28 02:06:08;;;;;;;55.90;14.13;;;;;;;6.18;93.10;99361.56;5005221;28;20121;-64
2021/12/28 02:08:33;;;;;;;62.55;14.23;;;;;;;6.17;92.82;99367.72;5005575;28;20041;-62
2021/12/28 02:10:59;;;;;;;64.05;13.07;;;;;;;6.17;92.82;99365.13;5005927;28;20026;-64
2021/12/28 02:13:25;;;;;;;63.33;12.43;;;;;;;6.17;92.61;99367.72;4986736;28;20477;-64
2021/12/28 02:15:51;;;;;;;62.75;13.70;;;;;;;6.15;92.65;99364.31;4987829;28;20018;-64
2021/12/28 02:18:18;;;;;;;66.20;11.95;;;;;;;6.15;92.56;99365.19;5003875;28;20018;-63
2021/12/28 02:20:45;;;;;;;66.88;12.52;;;;;;;6.15;92.66;99356.47;5006311;28;20025;-63
2021/12/28 02:23:11;;;;;;;75.10;13.05;;;;;;;6.17;92.51;99357.28;5006080;28;20030;-64
2021/12/28 02:25:37;;;;;;;75.35;13.30;;;;;;;6.16;92.27;99352.94;5006093;28;20480;-63
2021/12/28 02:28:05;;;;;;;70.22;10.85;;;;;;;6.14;92.54;99346.94;5007977;28;20038;-64
2021/12/28 02:30:31;;;;;;;61.97;10.90;;;;;;;6.13;92.38;99350.44;4992833;28;20032;-65
2021/12/28 02:32:56;;;;;;;62.78;12.15;;;;;;;6.12;92.36;99354.84;5026300;28;20026;-65
2021/12/28 02:35:24;;;;;;;85.13;13.45;;;;;;;6.13;92.38;99360.88;5027267;28;20025;-65
2021/12/28 02:37:50;;;;;;;85.78;17.00;;;;;;;6.20;92.66;99357.13;5028237;28;20487;-63
2021/12/28 02:40:19;;;;;;;86.43;15.68;;;;;;;6.29;92.87;99354.16;5028864;28;20112;-64
2021/12/28 02:42:45;;;;;;;64.35;12.77;;;;;;;6.35;92.97;99357.44;5016661;28;20022;-64
2021/12/28 02:45:14;;;;;;;91.55;14.60;;;;;;;6.37;93.05;99348.63;5009057;28;20511;-63
2021/12/28 02:47:41;;;;;;;71.50;13.50;;;;;;;6.41;92.89;99350.19;5007304;28;20071;-63
2021/12/28 02:50:11;;;;;;;69.68;14.13;;;;;;;6.39;92.63;99351.16;5007919;28;20479;-64
2021/12/28 02:52:36;;;;;;;;;;;;;;;6.41;92.74;99351.97;5009358;28;20026;-63
2021/12/28 02:55:08;;;;;;;63.60;11.68;;;;;;;6.40;92.73;99343.25;5007355;28;19921;-63
2021/12/28 02:57:33;;;;;;;70.18;10.98;;;;;;;6.42;92.58;99337.97;5008894;28;20026;-63
2021/12/28 02:59:59;;;;;;;65.45;12.15;;;;;;;6.43;92.39;99334.41;4990876;28;20105;-64
2021/12/28 03:02:24;;;;;;;56.58;11.43;;;;;;;6.48;92.59;99336.84;5007659;28;20181;-65
2021/12/28 03:04:50;;;;;;;69.13;14.20;;;;;;;6.49;92.62;99336.78;5005792;28;20046;-65
2021/12/28 03:07:15;;;;;;;64.80;11.40;;;;;;;6.55;92.56;99336.53;5008864;28;20113;-63
2021/12/28 03:09:41;;;;;;;59.35;10.90;;;;;;;6.61;92.57;99334.56;5007601;28;20064;-63
2021/12/28 03:12:07;;;;;;;50.85;10.55;;;;;;;6.60;92.54;99333.75;5007164;28;20433;-64
2021/12/28 03:14:32;;;;;;;59.83;11.15;;;;;;;6.64;92.30;99327.44;5008172;28;20037;-65
2021/12/28 03:16:58;;;;;;;69.18;10.48;;;;;;;6.65;92.28;99330.94;5007202;28;20168;-65
2021/12/28 03:19:23;;;;;;;63.90;9.15;;;;;;;6.67;92.29;99334.31;4990353;28;20037;-64
2021/12/28 03:21:50;;;;;;;63.88;11.45;;;;;;;6.73;92.38;99322.72;5007529;28;20026;-64
2021/12/28 03:24:16;;;;;;;63.00;9.98;;;;;;;6.74;92.30;99319.22;5007727;28;20467;-64
2021/12/28 03:26:42;;;;;;;64.93;10.18;;;;;;;6.72;92.18;99321.03;5007713;28;20302;-63
2021/12/28 03:29:07;;;;;;;59.53;9.27;;;;;;;6.73;92.12;99317.50;4990426;28;20113;-64
2021/12/28 03:31:32;;;;;;;68.05;9.60;;;;;;;6.73;91.97;99304.41;5007928;28;20053;-63
2021/12/28 03:33:58;;;;;;;67.15;9.50;;;;;;;6.75;91.86;99303.44;4973682;28;20026;-63
2021/12/28 03:36:28;;;;;;;54.67;9.35;;;;;;;6.72;91.71;99294.88;5005683;28;20038;-64
2021/12/28 03:38:54;;;;;;;56.35;10.95;;;;;;;6.70;92.05;99294.94;5006580;28;20101;-64
2021/12/28 03:41:21;;;;;;;57.72;9.00;;;;;;;6.71;92.03;99280.91;5007052;28;20030;-66
2021/12/28 03:43:50;;;;;;;60.78;9.25;;;;;;;6.76;92.18;99283.34;5005966;28;20029;-63
2021/12/28 03:46:15;;;;;;;;;;;;;;;6.75;91.97;99279.03;5004603;28;20137;-63
2021/12/28 03:48:42;;;;;;;53.50;8.18;;;;;;;6.79;92.05;99280.59;5008026;28;19956;-65
2021/12/28 03:51:08;;;;;;;47.25;8.18;;;;;;;6.78;92.12;99277.16;5006005;28;20029;-65
2021/12/28 03:53:33;;;;;;;54.05;8.02;;;;;;;6.82;92.24;99273.47;5010247;28;20040;-65
2021/12/28 03:55:59;;;;;;;64.35;9.73;;;;;;;6.77;91.99;99278.03;4989476;28;20026;-65
2021/12/28 03:58:25;;;;;;;56.58;9.95;;;;;;;6.77;92.14;99272.81;5005687;28;20112;-65
2021/12/28 04:00:50;;;;;;;56.90;9.20;;;;;;;6.79;92.37;99281.44;5007447;28;20026;-64
2021/12/28 04:03:15;;;;;;;60.25;11.27;;;;;;;6.75;92.35;99279.88;5005391;28;20076;-65
2021/12/28 04:05:44;;;;;;;46.17;8.20;;;;;;;6.80;92.21;99267.44;5007657;28;20038;-64
2021/12/28 04:08:09;;;;;;;56.60;9.07;;;;;;;6.86;92.24;99268.09;5007296;28;20169;-65
2021/12/28 04:10:50;;;;;;;60.65;9.68;;;;;;;6.83;92.14;99277.78;5007366;28;20116;-64
2021/12/28 04:13:16;;;;;;;62.15;10.82;;;;;;;6.79;92.15;99272.75;5006854;28;20022;-65
2021/12/28 04:15:41;;;;;;;48.03;8.00;;;;;;;6.83;92.19;99262.06;5007476;28;20033;-65
2021/12/28 04:18:07;;;;;;;53.45;9.93;;;;;;;6.80;92.36;99267.44;5006096;28;20029;-65
2021/12/28 04:20:32;;;;;;;68.47;11.77;;;;;;;6.81;92.36;99258.66;5007124;28;20493;-66
2021/12/28 04:22:57;;;;;;;61.42;9.45;;;;;;;6.79;92.22;99260.50;5012847;28;20104;-65
2021/12/28 04:25:23;;;;;;;50.65;8.07;;;;;;;6.81;92.40;99253.41;4997162;28;20030;-65
2021/12/28 04:27:48;;;;;;;55.13;8.77;;;;;;;6.82;92.22;99254.28;4985748;28;20522;-65
2021/12/28 04:30:15;;;;;;;53.42;9.70;;;;;;;6.83;92.20;99255.97;4969241;28;20026;-65
2021/12/28 04:32:41;;;;;;;49.80;9.32;;;;;;;6.87;92.18;99257.56;4986768;28;20026;-65
2021/12/28 04:35:06;;;;;;;53.85;8.32;;;;;;;6.85;92.09;99250.66;4969477;28;20262;-66
2021/12/28 04:37:32;;;;;;;67.13;9.40;;;;;;;6.86;91.98;99247.97;4988120;28;20054;-65
2021/12/28 04:39:57;;;;;;;56.60;9.00;;;;;;;6.85;92.03;99243.66;4971949;28;20451;-67
2021/12/28 04:42:25;;;;;;;53.47;8.38;;;;;;;6.90;92.26;99243.47;5005503;28;20018;-65
2021/12/28 04:44:50;;;;;;;51.03;9.68;;;;;;;6.91;91.97;99242.53;5003960;28;20180;-64
2021/12/28 04:47:16;;;;;;;57.40;9.43;;;;;;;6.87;92.06;99239.22;4988079;28;20121;-66
2021/12/28 04:49:43;;;;;;;56.50;8.70;;;;;;;6.87;92.11;99241.00;5005335;28;20025;-63
2021/12/28 04:52:08;;;;;;;52.97;7.97;;;;;;;6.89;92.22;99239.16;5005647;28;20349;-66
2021/12/28 04:54:36;;;;;;;51.63;8.02;;;;;;;6.91;92.08;99234.69;5006295;28;20265;-66
2021/12/28 04:57:01;;;;;;;48.03;7.28;;;;;;;6.93;92.33;99243.34;5005425;28;20381;-64
2021/12/28 04:59:26;;;;;;;61.55;7.20;;;;;;;6.95;92.37;99241.47;4988711;28;20026;-65
2021/12/28 05:01:52;;;;;;;68.32;9.13;;;;;;;6.94;92.34;99232.78;5005225;28;20022;-65
2021/12/28 05:04:17;;;;;;;57.53;9.55;;;;;;;6.96;92.47;99230.13;5005888;28;20030;-65
2021/12/28 05:06:42;;;;;;;52.60;7.90;;;;;;;6.99;92.33;99223.88;5006631;28;20026;-65
2021/12/28 05:09:10;;;;;;;47.25;8.43;;;;;;;7.00;92.24;99217.72;5005213;28;20061;-65
2021/12/28 05:11:36;;;;;;;58.92;8.60;;;;;;;7.00;92.36;99218.56;5005941;28;20034;-65
2021/12/28 05:14:04;;;;;;;36.25;6.22;;;;;;;7.05;92.28;99211.34;5006069;28;20113;-63
2021/12/28 05:16:30;;;;;;;51.55;9.52;;;;;;;7.04;92.46;99209.66;5005424;28;20438;-66
2021/12/28 05:18:56;;;;;;;59.45;8.07;;;;;;;7.03;92.47;99215.81;5011160;28;20034;-66
2021/12/28 05:21:22;;;;;;;56.72;9.45;;;;;;;7.05;92.21;99208.72;5026119;28;20033;-65
2021/12/28 05:23:47;;;;;;;42.60;8.23;;;;;;;7.06;92.71;99207.81;5013784;28;20105;-65
2021/12/28 05:26:12;;;;;;;42.65;6.72;;;;;;;7.11;92.62;99204.13;5006155;28;20038;-65
2021/12/28 05:28:38;;;;;;;48.40;8.15;;;;;;;7.13;92.54;99208.38;5005707;28;20029;-65
2021/12/28 05:31:03;;;;;;;47.25;8.63;;;;;;;7.15;92.65;99201.31;5005118;28;20499;-64
2021/12/28 05:33:28;;;;;;;58.53;9.77;;;;;;;7.20;92.68;99206.34;5005176;28;20030;-67
2021/12/28 05:35:54;;;;;;;57.60;9.02;;;;;;;7.27;92.74;99199.03;5005889;28;20485;-66
2021/12/28 05:38:19;;;;;;;53.25;9.70;;;;;;;7.30;92.94;99197.13;5005158;28;20495;-65
2021/12/28 05:40:45;;;;;;;47.40;8.20;;;;;;;7.37;92.84;99191.59;5005533;28;20386;-66
2021/12/28 05:43:10;;;;;;;49.38;7.78;;;;;;;7.44;92.84;99191.22;5003178;28;20436;-66
2021/12/28 05:45:35;;;;;;;53.42;9.05;;;;;;;7.46;92.85;99189.38;5005019;28;20376;-66
2021/12/28 05:48:00;;;;;;;50.55;8.07;;;;;;;7.53;92.88;99192.56;5004220;28;20484;-64
2021/12/28 05:50:26;;;;;;;44.08;7.85;;;;;;;7.56;92.58;99197.66;5005541;28;20170;-65
2021/12/28 05:52:51;;;;;;;35.63;6.38;;;;;;;7.61;92.78;99183.50;5005035;28;20030;-64
2021/12/28 05:55:16;;;;;;;46.10;8.25;;;;;;;7.64;92.86;99191.19;4988044;28;20034;-65
2021/12/28 05:57:42;;;;;;;40.15;7.22;;;;;;;7.68;92.97;99179.66;5005849;28;20030;-65
2021/12/28 06:00:09;;;;;;;51.22;9.73;;;;;;;7.71;92.69;99174.25;4987141;28;20033;-67
2021/12/28 06:02:35;;;;;;;35.90;8.52;;;;;;;7.75;92.70;99169.69;5008754;28;20029;-66
2021/12/28 06:05:00;;;;;;;43.83;7.38;;;;;;;7.79;92.71;99169.47;5008976;28;20688;-67
2021/12/28 06:07:27;;;;;;;36.42;8.18;;;;;;;7.76;92.59;99167.00;5009131;28;20034;-66
2021/12/28 06:09:56;;;;;;;44.58;7.80;;;;;;;7.76;92.84;99161.75;5008259;28;20042;-65
2021/12/28 06:12:22;;;;;;;;;;;;;;;7.80;92.78;99162.47;5009855;28;20040;-65
2021/12/28 06:14:47;;;;;;;43.35;7.80;;;;;;;7.80;92.65;99154.59;5008939;28;20295;-63
2021/12/28 06:17:13;;;;;;;31.73;6.35;;;;;;;7.82;92.67;99148.34;5008306;28;20121;-66
2021/12/28 06:19:38;;;;;;;37.08;9.90;;;;;;;7.83;92.50;99139.56;5008233;28;20098;-66
2021/12/28 06:22:04;;;;;;;35.75;8.27;;;;;;;7.80;92.55;99142.31;5008281;28;20709;-68
2021/12/28 06:24:29;;;;;;;23.48;6.90;;;;;;;7.84;92.71;99136.03;5007314;28;20390;-66
2021/12/28 06:26:54;;;;;;;23.83;6.93;;;;;;;7.86;92.73;99141.19;5007864;28;20105;-66
2021/12/28 06:29:20;;;;;;;36.90;8.30;;;;;;;7.81;92.61;99138.78;5007870;28;20033;-66
2021/12/28 06:31:45;;;;;;;30.35;9.23;;;;;;;7.83;92.75;99142.16;5007800;28;20049;-66
2021/12/28 06:34:10;;;;;;;35.25;8.85;;;;;;;7.84;92.64;99138.66;5009456;28;20022;-67
2021/12/28 06:36:37;;;;;;;31.88;9.32;;;;;;;7.88;92.49;99138.47;5009140;28;20025;-66
2021/12/28 06:39:03;;;;;;;34.15;8.38;;;;;;;7.85;92.53;99147.34;5008179;28;20029;-66
2021/12/28 06:41:28;;;;;;;38.17;9.38;;;;;;;7.84;92.50;99141.28;5008789;28;20014;-66
2021/12/28 06:43:53;;;;;;;37.15;10.20;;;;;;;7.83;92.27;99136.94;5008306;28;20032;-64
2021/12/28 06:46:19;;;;;;;38.35;8.60;;;;;;;7.89;92.53;99129.69;5007623;28;20025;-66
2021/12/28 06:48:44;;;;;;;32.45;9.35;;;;;;;7.89;92.20;99132.31;5008667;28;20030;-63
2021/12/28 06:51:09;;;;;;;38.42;11.63;;;;;;;7.86;92.59;99130.69;5009136;28;20026;-66
2021/12/28 06:53:35;;;;;;;42.92;10.93;;;;;;;7.84;92.60;99130.78;5008348;28;20037;-66
2021/12/28 06:56:03;;;;;;;32.08;9.93;;;;;;;7.90;92.39;99128.75;5007550;28;20024;-66
2021/12/28 06:58:28;;;;;;;39.10;11.80;;;;;;;7.86;92.48;99127.22;4990447;28;20057;-66
2021/12/28 07:00:54;;;;;;;39.75;11.95;;;;;;;7.88;92.73;99133.22;5006636;28;20433;-67
2021/12/28 07:03:19;;;;;;;42.13;11.02;;;;;;;7.93;92.43;99129.47;5007300;28;20540;-66
2021/12/28 07:05:44;;;;;;;37.88;11.55;;;;;;;7.94;92.39;99128.53;5007585;28;20129;-65
2021/12/28 07:08:10;;;;;;;29.00;12.13;;;;;;;7.93;92.44;99129.47;5008374;28;20029;-67
2021/12/28 07:10:35;;;;;;;29.63;12.55;;;;;;;7.94;92.32;99128.53;4990842;28;20378;-67
2021/12/28 07:13:00;;;;;;;30.30;12.68;;;;;;;7.93;92.12;99132.09;5006737;28;20022;-67
2021/12/28 07:15:26;;;;;;;36.65;12.75;;;;;;;7.94;92.25;99128.53;5007965;28;20040;-66
2021/12/28 07:17:51;;;;;;;38.90;14.18;;;;;;;7.95;92.19;99126.75;5006479;28;20026;-67
2021/12/28 07:20:18;;;;;;;30.88;12.73;;;;;;;7.99;92.43;99112.56;5007506;28;20032;-66
2021/12/28 07:22:43;;;;;;;35.33;14.40;;;;;;;7.93;92.10;99105.84;4989221;28;20132;-67
2021/12/28 07:25:09;;;;;;;32.53;12.57;;;;;;;7.99;92.28;99088.09;5006720;28;20105;-65
2021/12/28 07:27:35;;;;;;;42.03;11.75;;;;;;;7.99;92.04;99088.97;4989827;28;20559;-66
2021/12/28 07:30:03;;;;;;;35.38;14.93;;;;;;;7.96;92.33;99107.47;5007390;28;20034;-67
2021/12/28 07:32:28;;;;;;;32.63;13.75;;;;;;;8.01;92.15;99108.06;5006976;28;20080;-66
2021/12/28 07:34:54;;;;;;;31.52;14.80;;;;;;;8.06;92.25;99113.09;5007763;28;20022;-67
2021/12/28 07:37:19;;;;;;;36.38;17.65;;;;;;;8.00;92.09;99106.38;5011014;28;20029;-65
2021/12/28 07:39:44;;;;;;;33.00;14.65;;;;;;;8.03;92.12;99106.22;5008483;28;20064;-66
2021/12/28 07:42:10;;;;;;;32.05;15.52;;;;;;;8.07;92.21;99114.81;5006706;28;20026;-67
2021/12/28 07:44:36;;;;;;;40.92;18.23;;;;;;;8.08;92.13;99114.72;5006674;28;20026;-69
2021/12/28 07:47:02;;;;;;;42.75;20.00;;;;;;;8.07;92.06;99101.69;5005566;28;20310;-67
2021/12/28 07:49:27;;;;;;;40.47;19.85;;;;;;;8.08;92.28;99100.75;5006911;28;20108;-69
2021/12/28 07:51:53;;;;;;;48.15;21.90;;;;;;;8.07;92.31;99094.63;5005968;28;20029;-68
2021/12/28 07:54:18;;;;;;;44.25;22.33;;;;;;;8.08;92.05;99091.13;5005136;28;20041;-67
2021/12/28 07:56:43;;;;;;;49.58;21.20;;;;;;;8.04;92.02;99089.56;5003378;28;20026;-66
2021/12/28 07:59:09;;;;;;;44.67;20.65;;;;;;;8.05;92.31;99080.78;4991262;28;20030;-67
2021/12/28 08:01:35;;;;;;;39.40;20.88;;;;;;;8.06;92.22;99085.09;4990229;28;20030;-64
2021/12/28 08:04:00;;;;;;;37.03;17.60;;;;;;;8.10;92.08;99080.53;4990298;28;20018;-67
2021/12/28 08:06:25;;;;;;;51.97;20.02;;;;;;;8.11;91.91;99081.38;4989479;28;20058;-66
2021/12/28 08:08:51;;;;;;;40.75;17.38;;;;;;;8.12;91.96;99086.53;4991638;28;20381;-66
2021/12/28 08:11:16;;;;;;;38.83;19.38;;;;;;;8.05;92.01;99072.91;4975280;28;20488;-64
2021/12/28 08:13:41;;;;;;;40.58;18.83;;;;;;;8.05;92.40;99077.28;5006977;28;20372;-63
2021/12/28 08:16:07;;;;;;;39.33;19.27;;;;;;;8.02;92.32;99069.59;5005119;28;20692;-65
2021/12/28 08:18:32;;;;;;;41.67;18.92;;;;;;;8.04;92.15;99071.19;5003912;28;20033;-63
2021/12/28 08:20:57;;;;;;;40.47;20.13;;;;;;;8.05;92.17;99072.06;5005825;28;20029;-63
2021/12/28 08:23:23;;;;;;;41.75;19.92;;;;;;;8.11;92.19;99076.13;5004883;28;20030;-67
2021/12/28 08:25:48;;;;;;;44.33;18.98;;;;;;;8.11;92.36;99070.88;5005019;28;20548;-67
2021/12/28 08:28:13;;;;;;;41.00;18.20;;;;;;;8.12;92.13;99070.78;5004869;28;20432;-67
2021/12/28 08:30:39;;;;;;;35.75;16.40;;;;;;;8.14;92.52;99068.09;4971147;28;20125;-65
2021/12/28 08:33:06;;;;;;;34.97;18.10;;;;;;;8.14;92.30;99062.84;5005833;28;20057;-67
2021/12/28 08:35:32;;;;;;;35.25;16.88;;;;;;;8.13;91.92;99063.78;5006183;28;20057;-63
2021/12/28 08:37:58;;;;;;;25.73;15.23;;;;;;;8.21;91.88;99057.22;5006944;28;20080;-62
2021/12/28 08:40:24;;;;;;;31.48;16.60;;;;;;;8.21;92.18;99056.34;5006576;28;20021;-62
2021/12/28 08:42:50;;;;;;;39.65;18.30;;;;;;;8.19;92.12;99059.03;5005100;28;20029;-61
2021/12/28 08:45:16;;;;;;;30.92;16.08;;;;;;;8.22;92.18;99045.78;4987980;28;20030;-63
2021/12/28 08:47:42;;;;;;;32.90;17.25;;;;;;;8.24;92.27;99064.06;5005467;28;20084;-67
2021/12/28 08:50:09;;;;;;;26.23;14.82;;;;;;;8.29;91.95;99059.44;5005657;28;20060;-64
2021/12/28 08:52:35;;;;;;;29.77;17.50;;;;;;;8.33;91.79;99053.09;5005314;28;20492;-66
2021/12/28 08:55:01;;;;;;;24.67;15.65;;;;;;;8.41;91.80;99050.06;5005433;28;20022;-62
2021/12/28 08:57:26;;;;;;;29.67;15.95;;;;;;;8.40;91.70;99043.09;5005306;28;20044;-64
2021/12/28 08:59:52;;;;;;;25.90;16.23;;;;;;;8.39;91.72;99048.41;5006089;28;20030;-64
2021/12/28 09:02:17;;;;;;;25.08;15.15;;;;;;;8.40;91.62;99048.34;4987842;28;20037;-62
2021/12/28 09:04:46;;;;;;;27.42;17.63;;;;;;;8.43;91.46;99039.47;5004435;28;20133;-63
2021/12/28 09:07:16;;;;;;;30.58;16.17;;;;;;;8.48;91.62;99037.44;5004755;28;20496;-64
2021/12/28 09:09:43;;;;;;;28.65;17.20;;;;;;;8.57;91.12;99034.34;5005616;28;20481;-63
2021/12/28 09:12:09;;;;;;;29.17;17.85;;;;;;;8.54;91.29;99026.63;5005797;28;20065;-64
2021/12/28 09:14:34;;;;;;;29.52;17.55;;;;;;;8.61;91.14;99027.13;5006078;28;20123;-64
2021/12/28 09:17:00;;;;;;;21.20;14.45;;;;;;;8.66;90.86;99024.25;5017068;28;20345;-65
2021/12/28 09:19:25;;;;;;;24.45;16.50;;;;;;;8.68;90.90;99006.66;5019022;28;20499;-64
2021/12/28 09:21:50;;;;;;;27.25;16.00;;;;;;;8.73;90.91;99022.97;5007313;28;20088;-64
2021/12/28 09:24:16;;;;;;;27.42;16.42;;;;;;;8.77;90.55;99019.28;5006180;28;20049;-63
2021/12/28 09:26:42;;;;;;;22.67;16.00;;;;;;;8.86;89.92;99012.66;5004785;28;20440;-63
2021/12/28 09:29:07;;;;;;;33.53;15.88;;;;;;;8.91;89.77;99015.03;5005100;28;20435;-65
2021/12/28 09:31:33;;;;;;;20.33;13.65;;;;;;;8.92;89.81;99007.06;5004394;28;20026;-63
2021/12/28 09:33:59;;;;;;;21.67;15.68;;;;;;;8.87;89.95;99010.84;5006041;28;20026;-66
2021/12/28 09:36:24;;;;;;;20.42;14.40;;;;;;;8.91;89.46;99010.59;5005681;28;20503;-64
2021/12/28 09:38:49;;;;;;;22.40;15.57;;;;;;;8.87;89.70;99002.97;5005775;28;20064;-64
2021/12/28 09:41:15;;;;;;;22.25;15.23;;;;;;;8.86;89.70;99007.41;5004747;28;20022;-64
2021/12/28 09:43:40;;;;;;;23.42;14.10;;;;;;;8.85;90.14;98998.66;5006352;28;20095;-65
2021/12/28 09:46:07;;;;;;;24.90;15.63;;;;;;;8.85;90.09;99000.44;5004059;28;20044;-63
2021/12/28 09:48:33;;;;;;;24.33;15.63;;;;;;;8.88;90.03;99000.25;5005928;28;20076;-63
2021/12/28 09:50:59;;;;;;;19.40;14.40;;;;;;;8.93;89.89;98995.59;5005935;28;20030;-66
2021/12/28 09:53:24;;;;;;;18.67;13.48;;;;;;;8.95;89.57;98990.28;5005873;28;20121;-62
2021/12/28 09:55:49;;;;;;;15.88;11.38;;;;;;;9.03;89.44;98982.78;5005001;28;20090;-63
2021/12/28 09:58:15;;;;;;;16.50;11.40;;;;;;;9.14;88.90;98986.56;5002616;28;20037;-63
2021/12/28 10:00:40;;;;;;;18.40;11.15;;;;;;;9.14;88.58;98981.31;5003995;28;20391;-62
2021/12/28 10:03:05;;;;;;;12.65;8.93;;;;;;;9.15;88.65;98977.78;5004401;28;20547;-64
2021/12/28 10:05:33;;;;;;;12.07;8.75;;;;;;;9.22;88.61;98968.59;5005694;28;20073;-64
2021/12/28 10:08:00;;;;;;;10.35;7.05;;;;;;;9.25;87.81;98970.19;5005573;28;20057;-62
2021/12/28 10:10:35;;;;;;;9.85;6.72;;;;;;;9.32;87.59;98974.16;4987704;28;20045;-63
2021/12/28 10:13:06;;;;;;;8.07;6.20;;;;;;;9.41;87.23;98972.75;5006009;28;20052;-72
2021/12/28 10:15:37;;;;;;;6.10;4.88;;;;;;;9.42;87.13;98964.78;5004563;28;20022;-65
2021/12/28 10:18:10;;;;;;;5.55;4.22;;;;;;;9.50;86.62;98974.00;5005688;28;20033;-64
2021/12/28 10:20:42;;;;;;;3.88;3.20;;;;;;;9.51;86.87;98967.81;5006618;28;20107;-70
2021/12/28 10:23:11;;;;;;;3.38;2.92;;;;;;;9.44;87.29;98957.66;5005950;28;20117;-74
2021/12/28 10:25:45;;;;;;;4.38;2.53;;;;;;;9.40;87.96;98960.56;5018794;28;20029;-71
2021/12/28 10:28:34;;;;;;;3.25;2.38;;;;;;;9.35;87.74;98945.06;5025809;28;20067;-67
2021/12/28 10:31:04;;;;;;;3.60;2.45;;;;;;;9.35;87.89;98937.16;5024140;28;20132;-71
2021/12/28 10:33:33;;;;;;;3.65;2.42;;;;;;;9.43;87.29;98939.34;5025812;28;20022;-71
2021/12/28 10:36:03;;;;;;;;;;;;;;;9.44;87.13;98946.28;5025812;28;20083;-72
2021/12/28 10:38:32;;;;;;;4.25;2.90;;;;;;;9.44;87.28;98951.56;5025559;28;19905;-71
2021/12/28 10:41:00;;;;;;;2.85;2.60;;;;;;;9.42;87.33;98950.81;4990086;28;20095;-69
2021/12/28 10:43:32;;;;;;;3.63;2.83;;;;;;;9.33;87.01;98939.88;5005213;28;20021;-68
2021/12/28 10:46:01;;;;;;;6.93;2.92;;;;;;;9.23;87.29;98933.50;5004340;28;20169;-72
2021/12/28 10:48:37;;;;;;;3.80;3.00;;;;;;;9.20;87.75;98928.41;5009401;28;20053;-72
2021/12/28 10:51:09;;;;;;;3.97;3.55;;;;;;;9.24;87.43;98935.16;4990341;28;20030;-71
2021/12/28 10:53:52;;;;;;;4.45;2.78;;;;;;;9.26;87.48;98928.06;5006677;28;20244;-71
2021/12/28 10:56:17;;;;;;;6.85;3.40;;;;;;;9.21;87.69;98932.72;5005670;28;20030;-70
2021/12/28 10:58:46;;;;;;;6.05;2.70;;;;;;;9.16;87.94;98932.16;4991469;28;20423;-73
2021/12/28 11:01:18;;;;;;;5.82;2.70;;;;;;;9.19;87.46;98931.97;5006039;28;20022;-74
2021/12/28 11:03:47;;;;;;;4.68;2.45;;;;;;;9.18;87.89;98927.69;5005936;28;20397;-76
2021/12/28 11:06:16;;;;;;;5.03;2.83;;;;;;;9.13;88.13;98920.06;5006052;28;20088;-69
2021/12/28 11:08:43;;;;;;;6.88;3.13;;;;;;;9.11;87.83;98919.28;5008386;28;20276;-73
2021/12/28 11:11:12;;;;;;;4.05;2.70;;;;;;;9.03;88.07;98911.03;5005709;28;20022;-73
2021/12/28 11:13:37;;;;;;;8.98;2.95;;;;;;;8.99;88.47;98907.72;4990209;28;20053;-73
2021/12/28 11:16:06;;;;;;;6.68;2.55;;;;;;;9.03;88.37;98911.84;5004268;28;20057;-72
2021/12/28 11:18:38;;;;;;;5.35;2.75;;;;;;;9.02;88.28;98899.66;5004902;28;20113;-67
2021/12/28 11:21:17;;;;;;;9.88;2.75;;;;;;;8.95;88.88;98893.94;5006812;28;20026;-64
2021/12/28 11:23:44;;;;;;;5.05;2.85;;;;;;;8.97;88.51;98904.31;5007494;28;20038;-68
2021/12/28 11:26:16;;;;;;;4.13;2.50;;;;;;;8.92;89.17;98888.88;4990042;28;20111;-68
2021/12/28 11:28:51;;;;;;;5.80;3.60;;;;;;;8.87;88.92;98884.78;5008232;28;20032;-68
2021/12/28 11:31:21;;;;;;;5.43;2.90;;;;;;;8.91;89.13;98875.81;5006939;28;20469;-70